Ana Sayfa
METAR-TAF:

METAR-TAF

Havaalanları :

Balıkesir Merkez Havalimanı

Balıkesir, Türkiye

Enlem: 39-37N, Boylam: 027-55E, yükseklik: 101 m

Güncel hava durumu gözlemi

Rapor saat 12:50 UTC de 30 dakika önce yapıldı.
Rüzgar kuzeydan 4 kt, kuzeybatı ve doğu arasında değişken
Sıcaklık 28°C
Nem 32%
Basınç 1016 hPa
Görüş mesafesi 10 km veya daha fazla
1500 m altında bulut yok ve kümülonimbus yok

METAR: LTBF 261250Z 36004KT 310V080 CAVOK 28/10 Q1016 NOSIG

Saat: 16:20 (13:20 UTC)

Tahmin

Rapor saat 10:40 UTC de 2 saat ve 40 dakika önce yapıldı.
Ayın 26'si saat 12 UTC'den ayın 26'si saat 21 UTC'ye kadar geçerli Tahmin
Rüzgar kuzeydan 8 kt
Görüş mesafesi 10 km veya daha fazla
1500 m altında bulut yok ve kümülonimbus yok

TAF: LTBF 261040Z 2612/2621 01008KT CAVOK

4.000'den fazla havaalanı için hava durumu gözlemleri ve tahminleri (METAR ve TAF raporları).

Kullanılabilir istasyonlar harita üzerinde sarı ve kırmızı noktalarla gösterilir.

İstasyonun adını görmek için fareyi noktanın üzerinde gezdirin.

Sonrasında hava gözlem ve tahminlerini görmek için tıklayın.

Haritayı değiştirmek için: yaklaştırmak için siyah artı işaretli yeşil düğmeye ve uzaklaştırmak için de eksi işaretli düğmeye hızla tıklayın; bitişik haritalar için yeşil okları kullanın.


METAR-TAF: